Time;durP1;ratioP1;P1;durP2;ratioP2;P2;SDS_P1;SDS_P2;PMS_P1;PMS_P2;Temp;Humidity;BMP_temperature;BMP_pressure;BME280_temperature;BME280_humidity;BME280_pressure;Samples;Min_cycle;Max_cycle;Signal;HPM_P1;HPM_P2
2022/01/19 00:03:41;;;;;;;4.15;2.80;;;;;;;5.37;58.89;101531.78;10472440;28;20078;-64
2022/01/19 00:08:44;;;;;;;3.28;2.50;;;;;;;5.44;58.94;101543.78;10472699;28;20147;-64
2022/01/19 00:13:46;;;;;;;5.38;3.10;;;;;;;5.45;58.82;101535.13;10472912;28;20064;-64
2022/01/19 00:18:48;;;;;;;4.43;2.38;;;;;;;5.26;58.95;101525.88;10471784;28;20059;-64
2022/01/19 00:23:50;;;;;;;4.93;2.40;;;;;;;5.24;59.04;101494.78;10471164;28;20056;-64
2022/01/19 00:28:52;;;;;;;4.38;2.67;;;;;;;5.14;58.82;101468.97;10470914;28;20048;-63
2022/01/19 00:33:54;;;;;;;4.45;2.95;;;;;;;4.99;59.02;101474.34;10470226;28;20053;-64
2022/01/19 00:38:56;;;;;;;6.05;3.22;;;;;;;5.12;59.08;101478.50;10471249;28;20139;-63
2022/01/19 00:43:57;;;;;;;3.80;2.63;;;;;;;5.13;58.98;101483.66;10471093;28;20143;-66
2022/01/19 00:48:59;;;;;;;4.35;2.65;;;;;;;5.17;58.90;101497.44;10470781;28;20048;-63
2022/01/19 00:54:01;;;;;;;3.45;2.40;;;;;;;5.01;58.98;101493.31;10469975;28;20440;-64
2022/01/19 00:59:03;;;;;;;4.22;2.58;;;;;;;4.93;59.10;101492.56;10452475;28;20052;-63
2022/01/19 01:04:04;;;;;;;3.53;2.30;;;;;;;4.99;59.09;101489.88;10469344;28;20661;-64
2022/01/19 01:09:06;;;;;;;3.47;2.20;;;;;;;4.89;59.01;101475.31;10452423;28;20066;-64
2022/01/19 01:19:10;;;;;;;5.38;2.60;;;;;;;4.91;58.86;101473.56;10469361;28;20130;-64
2022/01/19 01:24:13;;;;;;;4.72;2.60;;;;;;;4.94;58.96;101463.19;10469610;28;20581;-63
2022/01/19 01:29:15;;;;;;;3.47;2.20;;;;;;;4.98;59.10;101446.72;10469666;28;20052;-63
2022/01/19 01:34:17;;;;;;;3.53;2.10;;;;;;;5.04;59.05;101436.25;10468592;28;20679;-63
2022/01/19 01:39:18;;;;;;;4.28;2.20;;;;;;;4.93;58.82;101413.06;10467841;28;20163;-64
2022/01/19 01:44:20;;;;;;;2.90;1.70;;;;;;;4.75;59.07;101408.13;10449661;28;20908;-64
2022/01/19 01:49:42;;;;;;;4.10;2.10;;;;;;;4.64;59.00;101413.44;10467823;28;20135;-64
2022/01/19 01:54:44;;;;;;;4.65;1.90;;;;;;;4.54;59.09;101418.72;10467856;28;20118;-63
2022/01/19 01:59:46;;;;;;;3.30;1.77;;;;;;;4.48;59.15;101409.31;10467433;28;20583;-64
2022/01/19 02:04:48;;;;;;;3.45;2.00;;;;;;;4.53;59.00;101398.91;10467563;28;20919;-63
2022/01/19 02:09:53;;;;;;;2.97;2.00;;;;;;;4.55;59.29;101387.66;10467573;28;20056;-64
2022/01/19 02:25:56;;;;;;;2.92;2.03;;;;;;;4.49;58.77;101356.63;10466644;28;20132;-64
2022/01/19 02:41:26;;;;;;;6.15;2.33;;;;;;;4.42;59.15;101336.84;10467122;28;20147;-63
2022/01/19 02:51:33;;;;;;;4.15;2.30;;;;;;;4.42;58.93;101323.91;10465757;28;20556;-64
2022/01/19 02:56:38;;;;;;;3.65;2.20;;;;;;;4.44;59.08;101329.91;10466234;28;20479;-63
2022/01/19 03:12:02;;;;;;;5.18;2.70;;;;;;;4.47;58.76;101295.34;10474406;28;20091;-63
2022/01/19 03:17:05;;;;;;;2.92;2.30;;;;;;;4.48;58.81;101287.56;10474221;28;20135;-63
2022/01/19 03:22:07;;;;;;;3.67;2.58;;;;;;;4.46;58.93;101273.75;10473711;28;20394;-64
2022/01/19 03:27:09;;;;;;;4.63;2.65;;;;;;;4.50;58.83;101257.31;10473961;28;20246;-64
2022/01/19 03:32:11;;;;;;;4.63;3.10;;;;;;;4.58;58.84;101252.00;10474074;28;20135;-64
2022/01/19 03:37:13;;;;;;;5.65;3.13;;;;;;;4.61;58.70;101239.03;10476485;28;20048;-63
2022/01/19 03:42:15;;;;;;;4.72;2.72;;;;;;;4.68;58.92;101233.72;10463922;28;20052;-63
2022/01/19 03:47:17;;;;;;;4.40;2.78;;;;;;;4.77;58.62;101231.84;10479880;28;20059;-63
2022/01/19 03:52:20;;;;;;;4.07;2.40;;;;;;;4.74;58.80;101237.09;10481050;28;20052;-63
2022/01/19 03:57:21;;;;;;;4.85;2.63;;;;;;;4.72;58.40;101224.16;10479925;28;20151;-63
2022/01/19 04:02:23;;;;;;;4.72;2.80;;;;;;;4.72;58.60;101220.72;10477119;28;20052;-64
2022/01/19 04:07:26;;;;;;;5.00;2.53;;;;;;;4.66;58.32;101203.50;10474741;28;20153;-64
2022/01/19 04:12:54;;;;;;;5.07;2.75;;;;;;;4.64;58.32;101185.41;10472907;28;20139;-64
2022/01/19 04:17:54;;;;;;;5.53;3.58;;;;;;;4.52;58.62;101175.25;10472035;28;20265;-64
2022/01/19 04:22:56;;;;;;;6.15;3.92;;;;;;;4.62;58.39;101170.75;10454359;28;20468;-64
2022/01/19 04:27:57;;;;;;;7.47;4.50;;;;;;;4.62;58.16;101169.03;10471495;28;20576;-64
2022/01/19 05:09:55;;;;;;;9.82;5.45;;;;;;;3.36;60.71;101095.72;10470355;28;20404;-63
2022/01/19 05:14:50;;;;;;;;;;;;;;;2.95;61.84;101091.00;10470038;28;20052;-63
2022/01/19 05:19:51;;;;;;;8.25;5.70;;;;;;;3.14;61.12;101104.59;10470134;28;20010;-63
2022/01/19 05:24:53;;;;;;;9.65;5.90;;;;;;;3.20;61.42;101126.06;10469444;28;20139;-63
2022/01/19 05:29:55;;;;;;;58.15;28.98;;;;;;;3.50;61.28;101124.84;10452255;28;20053;-63
2022/01/19 05:34:56;;;;;;;67.00;35.10;;;;;;;3.62;61.03;101122.97;10469701;28;20332;-63
2022/01/19 05:39:58;;;;;;;20.98;11.90;;;;;;;3.76;60.88;101108.13;10469730;28;20052;-63
2022/01/19 05:45:01;;;;;;;11.30;8.10;;;;;;;3.73;60.78;101107.31;10469089;28;20061;-63
2022/01/19 05:50:03;;;;;;;10.27;7.13;;;;;;;3.76;60.99;101102.94;10468557;28;20048;-63
2022/01/19 05:55:05;;;;;;;8.65;5.28;;;;;;;3.80;60.84;101093.44;10468968;28;20921;-63
2022/01/19 06:00:08;;;;;;;7.35;5.78;;;;;;;3.91;60.40;101095.88;10468043;28;20088;-63
2022/01/19 06:05:10;;;;;;;10.43;5.88;;;;;;;3.94;60.28;101091.53;10469377;28;20155;-63
2022/01/19 06:10:42;;;;;;;7.95;5.97;;;;;;;4.06;60.11;101081.00;10468915;28;20048;-63
2022/01/19 06:15:35;;;;;;;10.10;6.95;;;;;;;4.06;60.09;101085.31;10467784;28;20432;-63
2022/01/19 06:20:37;;;;;;;14.60;8.15;;;;;;;4.21;60.03;101080.75;10467262;28;20541;-63
2022/01/19 06:25:39;;;;;;;10.52;6.97;;;;;;;4.28;59.66;101063.41;10465944;28;20056;-63
2022/01/19 06:30:41;;;;;;;9.60;7.10;;;;;;;4.25;59.53;101058.28;10468106;28;20589;-63
2022/01/19 06:35:43;;;;;;;11.52;7.20;;;;;;;4.35;59.40;101047.72;10468213;28;20060;-63
2022/01/19 06:40:44;;;;;;;7.85;6.25;;;;;;;4.32;59.33;101045.19;10467496;28;20086;-63
2022/01/19 06:45:46;;;;;;;8.35;6.57;;;;;;;4.41;59.07;101041.59;10449728;28;20124;-63
2022/01/19 06:50:48;;;;;;;10.07;7.28;;;;;;;4.41;59.24;101034.66;10467073;28;20611;-63
2022/01/19 06:55:49;;;;;;;7.97;6.72;;;;;;;4.29;59.14;101027.09;10466591;28;20529;-63
2022/01/19 07:00:52;;;;;;;8.20;6.60;;;;;;;4.27;59.22;101018.50;10466626;28;20056;-63
2022/01/19 07:05:54;;;;;;;11.50;7.25;;;;;;;4.15;59.43;101013.53;10449447;28;20075;-63
2022/01/19 07:10:55;;;;;;;10.77;6.88;;;;;;;4.27;59.39;101008.16;10468333;28;20052;-63
2022/01/19 07:15:57;;;;;;;10.38;6.88;;;;;;;4.32;59.31;100996.00;10456004;28;20061;-63
2022/01/19 07:20:59;;;;;;;9.73;6.70;;;;;;;4.37;59.33;100993.34;10473968;28;20052;-64
2022/01/19 07:26:01;;;;;;;10.60;6.65;;;;;;;4.51;59.06;100992.22;10473335;28;20159;-63
2022/01/19 07:31:03;;;;;;;10.05;6.90;;;;;;;4.55;58.88;100983.50;10474469;28;20131;-63
2022/01/19 07:36:05;;;;;;;10.65;7.00;;;;;;;4.58;58.50;100982.56;10474458;28;20518;-63
2022/01/19 07:41:07;;;;;;;9.98;6.90;;;;;;;4.44;58.53;100981.97;10455903;28;20145;-63
2022/01/19 07:46:09;;;;;;;8.48;6.35;;;;;;;4.45;58.82;100981.97;10473841;28;20291;-63
2022/01/19 07:51:11;;;;;;;11.15;7.85;;;;;;;4.29;58.27;100972.72;10473962;28;20064;-63
2022/01/19 07:56:12;;;;;;;10.57;8.10;;;;;;;3.98;58.83;100971.56;10473116;28;20048;-63
2022/01/19 08:01:14;;;;;;;10.90;8.02;;;;;;;3.94;59.13;100974.22;10473339;28;20056;-63
2022/01/19 08:06:17;;;;;;;11.18;8.23;;;;;;;3.88;58.68;100964.84;10473605;28;20048;-63
2022/01/19 08:11:18;;;;;;;12.93;8.60;;;;;;;3.82;59.11;100967.50;10470204;28;20048;-62
2022/01/19 08:16:21;;;;;;;12.65;9.30;;;;;;;3.84;58.90;100970.94;10471586;28;20050;-63
2022/01/19 08:21:23;;;;;;;12.95;9.65;;;;;;;3.82;59.07;100963.13;10470895;28;20048;-63
2022/01/19 08:26:24;;;;;;;14.68;10.00;;;;;;;3.94;59.11;100956.97;10471011;28;20051;-63
2022/01/19 08:31:26;;;;;;;12.82;9.60;;;;;;;4.03;58.92;100940.44;10470025;28;20049;-63
2022/01/19 08:36:28;;;;;;;15.15;9.43;;;;;;;4.08;58.61;100928.25;10464535;28;20126;-63
2022/01/19 08:41:30;;;;;;;14.73;9.68;;;;;;;4.27;58.31;100920.13;10461857;28;20057;-63
2022/01/19 08:46:32;;;;;;;13.50;9.50;;;;;;;4.33;57.95;100914.81;10466033;28;20335;-63
2022/01/19 08:51:35;;;;;;;12.43;8.60;;;;;;;4.29;58.03;100910.59;10467569;28;20171;-63
2022/01/19 08:56:37;;;;;;;13.15;9.00;;;;;;;4.28;57.68;100897.69;10469136;28;20690;-63
2022/01/19 09:01:39;;;;;;;12.60;9.50;;;;;;;4.42;57.49;100893.94;10468444;28;20106;-63
2022/01/19 09:06:43;;;;;;;14.15;9.10;;;;;;;4.41;57.88;100891.41;10468083;28;20514;-63
2022/01/19 09:11:45;;;;;;;14.98;9.73;;;;;;;4.38;57.46;100881.09;10468241;28;20080;-63
2022/01/19 09:16:50;;;;;;;16.05;8.90;;;;;;;4.39;57.23;100875.84;10467887;28;20323;-63
2022/01/19 09:21:55;;;;;;;13.18;9.38;;;;;;;4.37;57.38;100869.03;10467511;28;20139;-63
2022/01/19 09:26:57;;;;;;;13.32;8.80;;;;;;;4.39;57.19;100862.09;10466915;28;20585;-63
2022/01/19 09:32:01;;;;;;;13.35;9.60;;;;;;;4.46;57.18;100861.06;10466421;28;20139;-63
2022/01/19 09:37:03;;;;;;;13.75;8.68;;;;;;;4.70;56.74;100873.50;10466455;28;20057;-63
2022/01/19 09:42:06;;;;;;;14.05;7.75;;;;;;;4.82;56.38;100864.66;10466578;28;20048;-63
2022/01/19 09:47:08;;;;;;;10.13;6.90;;;;;;;4.92;56.30;100858.38;10464837;28;20060;-64
2022/01/19 09:52:10;;;;;;;10.98;7.50;;;;;;;4.94;56.38;100847.09;10465978;28;20451;-64
2022/01/19 09:57:12;;;;;;;10.90;7.32;;;;;;;5.19;55.92;100849.94;10466819;28;20044;-64
2022/01/19 10:02:16;;;;;;;10.85;7.47;;;;;;;4.84;55.49;100842.13;10468318;28;20072;-64
2022/01/19 10:07:21;;;;;;;11.02;7.43;;;;;;;4.62;56.64;100858.13;10467833;28;20554;-64
2022/01/19 10:18:12;;;;;;;11.00;7.22;;;;;;;4.97;55.14;100817.63;10466370;28;20520;-64
2022/01/19 10:23:52;;;;;;;13.27;8.20;;;;;;;5.12;55.55;100818.16;10459048;28;20135;-64
2022/01/19 10:29:04;;;;;;;11.02;7.43;;;;;;;5.19;54.77;100816.25;10344178;28;20161;-63
2022/01/19 10:34:21;;;;;;;9.80;7.00;;;;;;;5.16;55.37;100800.78;10464168;28;20685;-64
2022/01/19 10:39:37;;;;;;;13.57;8.15;;;;;;;5.18;55.47;100796.41;10465910;28;20155;-65
2022/01/19 10:44:47;;;;;;;11.65;8.18;;;;;;;5.13;55.45;100793.03;10464494;28;20136;-65
2022/01/19 10:50:08;;;;;;;12.80;8.80;;;;;;;5.00;56.48;100796.84;10456887;28;20644;-65
2022/01/19 10:55:31;;;;;;;14.27;8.75;;;;;;;4.96;56.03;100782.25;10472883;28;20113;-65
2022/01/19 11:00:36;;;;;;;12.98;8.95;;;;;;;4.77;56.29;100780.94;10472949;28;20323;-64
2022/01/19 11:05:49;;;;;;;12.65;9.60;;;;;;;4.68;56.08;100775.09;10474143;28;20056;-65
2022/01/19 11:10:54;;;;;;;13.18;9.55;;;;;;;4.61;56.44;100770.94;10473955;28;20246;-65
2022/01/19 11:15:57;;;;;;;14.23;9.82;;;;;;;4.69;56.79;100757.81;10472840;28;20160;-65
2022/01/19 11:21:01;;;;;;;14.38;9.40;;;;;;;4.75;56.51;100738.69;10473228;28;20048;-64
2022/01/19 11:26:15;;;;;;;14.50;9.43;;;;;;;4.86;56.56;100724.56;10473306;28;20147;-63
2022/01/19 11:31:23;;;;;;;14.48;9.65;;;;;;;4.88;56.10;100711.59;10472160;28;20094;-65
2022/01/19 11:36:25;;;;;;;12.30;8.82;;;;;;;4.97;56.26;100695.81;10472917;28;20059;-65
2022/01/19 11:41:44;;;;;;;14.32;10.25;;;;;;;4.84;56.24;100697.00;10472211;28;20569;-65
2022/01/19 11:46:52;;;;;;;14.18;9.95;;;;;;;4.75;56.76;100681.66;10472930;28;20060;-65
2022/01/19 11:51:55;;;;;;;17.08;10.45;;;;;;;4.81;56.63;100679.78;10471266;28;20099;-65
2022/01/19 11:57:02;;;;;;;14.80;9.93;;;;;;;4.81;56.76;100663.38;10469939;28;20135;-65
2022/01/19 12:02:28;;;;;;;14.75;10.15;;;;;;;4.57;56.50;100659.66;10470335;28;20088;-65
2022/01/19 12:07:56;;;;;;;15.43;10.90;;;;;;;4.62;57.24;100642.25;10472008;28;20460;-64
2022/01/19 12:13:56;;;;;;;17.48;10.95;;;;;;;4.64;57.43;100640.47;10471679;28;20063;-65
2022/01/19 12:19:00;;;;;;;18.45;11.95;;;;;;;4.66;57.19;100629.19;10469970;28;20058;-64
2022/01/19 12:24:21;;;;;;;15.10;9.75;;;;;;;4.63;57.14;100629.28;10470942;28;20416;-64
2022/01/19 12:29:38;;;;;;;12.70;9.20;;;;;;;4.64;57.10;100624.94;10471636;28;20139;-65
2022/01/19 12:34:43;;;;;;;13.27;8.23;;;;;;;4.40;57.53;100618.59;10469527;28;21062;-65
2022/01/19 12:39:45;;;;;;;10.73;7.20;;;;;;;4.33;57.14;100613.63;10471425;28;20048;-64
2022/01/19 12:44:53;;;;;;;10.10;6.43;;;;;;;4.14;57.25;100604.56;10470906;28;20535;-65
2022/01/19 12:50:03;;;;;;;9.65;6.97;;;;;;;4.37;57.28;100597.13;10470706;28;20059;-65
2022/01/19 12:55:11;;;;;;;8.10;5.63;;;;;;;4.15;57.18;100582.97;10451743;28;20187;-64
2022/01/19 13:00:16;;;;;;;9.18;5.72;;;;;;;3.85;57.33;100584.50;10468773;28;20706;-65
2022/01/19 13:05:20;;;;;;;8.85;5.43;;;;;;;3.91;57.35;100575.75;10468035;28;20122;-64
2022/01/19 13:15:43;;;;;;;8.85;5.40;;;;;;;3.68;57.96;100579.66;10469237;28;20056;-64
2022/01/19 13:20:55;;;;;;;12.07;6.45;;;;;;;3.74;57.45;100570.94;10450426;28;20052;-64
2022/01/19 13:26:06;;;;;;;9.05;5.45;;;;;;;3.63;57.85;100578.94;10468002;28;20139;-64
2022/01/19 13:31:23;;;;;;;9.65;6.20;;;;;;;3.69;58.42;100563.28;10469288;28;20143;-65
2022/01/19 13:36:33;;;;;;;8.65;6.22;;;;;;;3.65;58.23;100559.06;10468047;28;20056;-64
2022/01/19 13:41:42;;;;;;;8.97;6.27;;;;;;;3.41;58.68;100554.41;10469720;28;20044;-64
2022/01/19 13:46:44;;;;;;;8.85;6.22;;;;;;;3.26;59.46;100562.47;10467034;28;20048;-65
2022/01/19 13:51:46;;;;;;;10.23;6.90;;;;;;;3.16;59.86;100560.09;10450704;28;20455;-64
2022/01/19 13:56:57;;;;;;;9.70;6.03;;;;;;;3.29;59.88;100564.13;10466113;28;20063;-64
2022/01/19 14:02:00;;;;;;;;;;;;;;;3.10;60.72;100565.38;10448867;28;20132;-64
2022/01/19 14:07:10;;;;;;;8.30;5.68;;;;;;;3.18;60.89;100558.31;10467302;28;19920;-64
2022/01/19 14:12:18;;;;;;;12.07;6.47;;;;;;;3.15;61.16;100564.44;10467176;28;20052;-65
2022/01/19 14:17:34;;;;;;;9.45;6.78;;;;;;;3.13;61.98;100560.16;10466607;28;20143;-64
2022/01/19 14:22:36;;;;;;;11.35;7.30;;;;;;;3.14;62.12;100536.88;10466029;28;20048;-64
2022/01/19 14:27:47;;;;;;;11.70;7.30;;;;;;;3.21;62.54;100537.59;10465742;28;20147;-64
2022/01/19 14:32:48;;;;;;;13.80;7.90;;;;;;;3.34;62.18;100537.31;10466991;28;20091;-64
2022/01/19 14:38:00;;;;;;;11.35;7.80;;;;;;;3.23;62.81;100538.41;10465596;28;21065;-64
2022/01/19 14:43:03;;;;;;;12.40;7.78;;;;;;;3.24;62.33;100517.69;10465831;28;20114;-64
2022/01/19 14:48:15;;;;;;;11.93;7.93;;;;;;;3.31;62.50;100518.44;10465639;28;20145;-64
2022/01/19 14:53:17;;;;;;;11.68;8.02;;;;;;;3.37;61.98;100507.97;10466894;28;20056;-64
2022/01/19 14:58:19;;;;;;;15.63;8.40;;;;;;;3.31;62.23;100495.16;10463792;28;20127;-64
2022/01/19 15:03:20;;;;;;;12.88;7.57;;;;;;;3.27;62.29;100502.16;10447531;28;20148;-65
2022/01/19 15:08:22;;;;;;;12.07;7.80;;;;;;;3.28;62.69;100503.81;10466044;28;20048;-64
2022/01/19 15:13:24;;;;;;;11.55;7.82;;;;;;;3.22;63.19;100510.84;10448248;28;20147;-64
2022/01/19 15:18:26;;;;;;;10.43;7.38;;;;;;;3.05;63.87;100506.88;10465931;28;20139;-65
2022/01/19 15:23:27;;;;;;;11.55;8.20;;;;;;;3.17;63.65;100502.38;10464414;28;20063;-64
2022/01/19 15:28:29;;;;;;;12.30;8.38;;;;;;;3.24;63.63;100494.44;10464095;28;20715;-65
2022/01/19 15:33:32;;;;;;;12.18;7.70;;;;;;;3.17;64.00;100499.78;10470152;28;20048;-65
2022/01/19 15:38:35;;;;;;;10.98;7.90;;;;;;;3.28;63.76;100493.50;10474199;28;20148;-65
2022/01/19 15:43:36;;;;;;;13.73;9.63;;;;;;;3.21;64.10;100489.34;10471956;28;20531;-65
2022/01/19 15:48:38;;;;;;;11.65;7.57;;;;;;;3.22;64.23;100492.75;10454286;28;20372;-65
2022/01/19 15:53:40;;;;;;;11.57;7.55;;;;;;;3.16;64.43;100480.81;10472304;28;20423;-65
2022/01/19 15:58:42;;;;;;;13.90;8.73;;;;;;;3.14;64.72;100481.72;10470336;28;20135;-65
2022/01/19 16:03:43;;;;;;;10.52;7.82;;;;;;;2.98;65.16;100469.16;10471367;28;20414;-65
2022/01/19 16:08:45;;;;;;;13.43;8.15;;;;;;;2.98;65.53;100465.72;10471339;28;20059;-64
2022/01/19 16:13:47;;;;;;;12.57;7.70;;;;;;;3.12;65.16;100468.00;10471612;28;20522;-65
2022/01/19 16:18:49;;;;;;;11.45;7.50;;;;;;;3.10;65.12;100456.84;10471592;28;20223;-64
2022/01/19 16:29:30;;;;;;;;;;;;;;;2.84;65.85;100458.25;10471025;28;20048;-65
2022/01/19 16:34:32;;;;;;;12.15;7.68;;;;;;;3.23;64.74;100453.13;10470773;28;19924;-65
2022/01/19 16:39:34;;;;;;;13.25;8.07;;;;;;;3.21;64.72;100447.13;10465115;28;20144;-65
2022/01/19 16:44:36;;;;;;;11.80;8.23;;;;;;;3.20;64.82;100443.69;10464487;28;20147;-64
2022/01/19 16:49:45;;;;;;;14.27;9.00;;;;;;;3.23;64.55;100453.97;10467029;28;20052;-64
2022/01/19 16:54:47;;;;;;;14.13;9.55;;;;;;;3.13;64.93;100455.03;10466001;28;20056;-64
2022/01/19 16:59:50;;;;;;;13.52;9.10;;;;;;;3.07;65.30;100453.44;10467370;28;20834;-64
2022/01/19 17:04:51;;;;;;;13.85;9.45;;;;;;;3.02;65.44;100455.28;10467910;28;20130;-64
2022/01/19 17:09:53;;;;;;;15.00;9.38;;;;;;;2.96;65.58;100439.91;10463746;28;20500;-64
2022/01/19 17:15:02;;;;;;;13.73;9.73;;;;;;;3.13;65.13;100443.88;10467752;28;20049;-64
2022/01/19 17:20:04;;;;;;;17.33;10.55;;;;;;;3.10;65.35;100452.53;10464527;28;20166;-64
2022/01/19 17:25:07;;;;;;;17.23;10.85;;;;;;;3.07;65.41;100433.66;10467596;28;20147;-64
2022/01/19 17:30:09;;;;;;;15.57;10.65;;;;;;;3.25;64.71;100426.38;10467153;28;20171;-64
2022/01/19 17:35:11;;;;;;;17.15;11.50;;;;;;;3.26;64.91;100427.19;10467763;28;20409;-64
2022/01/19 17:40:13;;;;;;;16.98;11.25;;;;;;;3.20;64.69;100422.16;10448328;28;20303;-64
2022/01/19 17:45:24;;;;;;;17.95;11.18;;;;;;;3.23;64.82;100435.88;10468116;28;20047;-64
2022/01/19 17:55:47;;;;;;;16.95;11.80;;;;;;;3.03;65.03;100435.44;10462948;28;20052;-64
2022/01/19 18:00:49;;;;;;;19.10;13.15;;;;;;;3.00;65.39;100444.13;10464786;28;20522;-64
2022/01/19 18:05:51;;;;;;;19.42;12.32;;;;;;;3.04;65.43;100447.50;10466610;28;20052;-64
2022/01/19 18:10:53;;;;;;;19.38;12.43;;;;;;;3.00;65.75;100448.44;10465979;28;20493;-64
2022/01/19 18:15:55;;;;;;;18.00;12.73;;;;;;;3.02;65.86;100433.75;10465607;28;20048;-64
2022/01/19 18:20:56;;;;;;;19.17;12.57;;;;;;;2.87;66.52;100436.66;10447075;28;20463;-64
2022/01/19 18:25:59;;;;;;;20.45;13.13;;;;;;;2.89;66.80;100427.13;10464030;28;20863;-64
2022/01/19 18:31:01;;;;;;;20.35;12.85;;;;;;;2.94;66.84;100433.94;10464493;28;20056;-64
2022/01/19 18:36:03;;;;;;;21.35;13.15;;;;;;;3.07;66.33;100433.66;10465205;28;20053;-64
2022/01/19 18:41:07;;;;;;;17.90;12.10;;;;;;;2.96;66.98;100439.06;10463292;28;20041;-64
2022/01/19 18:46:09;;;;;;;18.98;13.82;;;;;;;2.91;67.05;100430.53;10463935;28;20057;-64
2022/01/19 18:51:11;;;;;;;17.63;12.80;;;;;;;3.00;66.79;100436.38;10465949;28;20392;-64
2022/01/19 18:56:14;;;;;;;20.02;12.40;;;;;;;2.99;67.02;100442.41;10465547;28;20063;-64
2022/01/19 19:01:16;;;;;;;15.23;11.20;;;;;;;2.93;67.45;100439.97;10466134;28;20173;-64
2022/01/19 19:06:18;;;;;;;15.90;11.63;;;;;;;2.95;67.05;100422.69;10467940;28;20142;-64
2022/01/19 19:11:57;;;;;;;17.35;12.63;;;;;;;2.94;67.24;100421.00;10474385;28;20135;-64
2022/01/19 19:16:56;;;;;;;16.73;11.50;;;;;;;3.03;67.04;100407.88;10472895;28;20056;-64
2022/01/19 19:21:58;;;;;;;15.80;10.65;;;;;;;3.05;66.79;100413.88;10473411;28;20561;-64
2022/01/19 19:27:00;;;;;;;13.63;10.25;;;;;;;3.02;66.85;100413.09;10473417;28;20319;-64
2022/01/19 19:32:03;;;;;;;15.68;11.00;;;;;;;2.95;67.08;100412.34;10467640;28;20064;-63
2022/01/19 19:37:10;;;;;;;19.25;11.63;;;;;;;2.94;67.32;100402.06;10470635;28;20060;-63
2022/01/19 19:42:12;;;;;;;13.43;9.85;;;;;;;2.77;67.86;100405.00;10469573;28;20044;-64
2022/01/19 19:47:14;;;;;;;14.80;10.35;;;;;;;3.01;67.22;100419.97;10467732;28;20062;-63
2022/01/19 19:52:16;;;;;;;14.82;10.10;;;;;;;3.03;67.18;100400.13;10452768;28;20079;-64
2022/01/19 19:57:18;;;;;;;12.13;9.23;;;;;;;2.94;67.96;100413.25;10465822;28;20059;-64
2022/01/19 20:02:20;;;;;;;13.63;9.60;;;;;;;3.03;67.75;100414.78;10469758;28;21043;-64
2022/01/19 20:07:22;;;;;;;13.57;9.27;;;;;;;3.12;67.76;100409.41;10470630;28;20167;-63
2022/01/19 20:12:24;;;;;;;14.13;10.38;;;;;;;3.16;67.68;100412.78;10451215;28;20509;-65
2022/01/19 20:17:26;;;;;;;17.25;11.48;;;;;;;3.10;68.02;100415.50;10469903;28;20144;-64
2022/01/19 20:22:28;;;;;;;15.90;10.85;;;;;;;3.10;67.97;100411.19;10468082;28;20057;-64
2022/01/19 20:27:30;;;;;;;13.10;8.88;;;;;;;3.05;68.18;100406.09;10469569;28;20659;-63
2022/01/19 20:32:35;;;;;;;12.82;8.88;;;;;;;3.07;68.21;100414.69;10468097;28;20080;-64
2022/01/19 20:37:39;;;;;;;10.93;8.18;;;;;;;3.12;68.34;100403.38;10470013;28;20157;-64
2022/01/19 20:42:41;;;;;;;11.75;8.38;;;;;;;3.07;68.58;100422.44;10468803;28;20405;-64
2022/01/19 20:47:42;;;;;;;11.38;8.75;;;;;;;3.17;68.31;100430.00;10467603;28;20064;-64
2022/01/19 20:52:44;;;;;;;11.60;7.68;;;;;;;3.20;68.25;100435.09;10469546;28;20052;-64
2022/01/19 20:57:47;;;;;;;10.90;7.47;;;;;;;3.11;68.42;100427.56;10468481;28;20466;-64
2022/01/19 21:02:49;;;;;;;10.50;7.63;;;;;;;3.07;68.90;100429.31;10469958;28;20132;-63
2022/01/19 21:07:51;;;;;;;19.63;13.13;;;;;;;3.22;68.51;100435.91;10469171;28;20167;-64
2022/01/19 21:12:53;;;;;;;11.77;8.23;;;;;;;3.02;69.23;100439.78;10451456;28;20531;-64
2022/01/19 21:17:55;;;;;;;13.68;10.07;;;;;;;3.21;68.63;100445.41;10465391;28;20079;-64
2022/01/19 21:22:57;;;;;;;8.75;6.82;;;;;;;3.20;68.81;100450.59;10448661;28;20549;-65
2022/01/19 21:27:59;;;;;;;9.60;7.18;;;;;;;3.12;69.10;100443.00;10463580;28;20501;-64
2022/01/19 21:33:06;;;;;;;11.15;6.97;;;;;;;3.03;69.29;100450.94;10442596;28;20610;-65
2022/01/19 21:38:08;;;;;;;8.20;5.78;;;;;;;2.95;69.77;100453.69;10465640;28;20439;-64
2022/01/19 21:43:10;;;;;;;8.20;6.20;;;;;;;3.03;69.35;100459.56;10444824;28;20542;-64
2022/01/19 21:48:12;;;;;;;6.68;5.10;;;;;;;3.13;69.02;100465.38;10446295;28;20061;-64
2022/01/19 21:53:13;;;;;;;7.20;5.15;;;;;;;3.11;69.19;100461.97;10465710;28;20059;-64
2022/01/19 21:58:15;;;;;;;7.82;5.40;;;;;;;3.25;68.72;100472.03;10463703;28;20135;-64
2022/01/19 22:03:17;;;;;;;8.88;6.30;;;;;;;3.34;68.71;100482.16;10465407;28;20145;-65
2022/01/19 22:08:19;;;;;;;6.30;4.38;;;;;;;3.37;68.87;100477.78;10467170;28;20153;-64
2022/01/19 22:13:21;;;;;;;7.78;5.65;;;;;;;3.48;68.35;100474.94;10464853;28;20419;-64
2022/01/19 22:18:23;;;;;;;10.82;5.63;;;;;;;3.49;68.62;100480.09;10466441;28;20094;-64
2022/01/19 22:23:25;;;;;;;6.78;5.13;;;;;;;3.50;68.66;100468.88;10466252;28;20044;-64
2022/01/19 22:28:28;;;;;;;8.82;5.55;;;;;;;3.59;68.19;100467.81;10457201;28;20829;-68
2022/01/19 22:33:30;;;;;;;7.13;5.60;;;;;;;3.54;68.33;100465.31;10459678;28;20131;-68
2022/01/19 22:38:31;;;;;;;8.18;5.22;;;;;;;3.37;68.59;100479.53;10465926;28;20528;-68
2022/01/19 22:43:33;;;;;;;7.15;5.43;;;;;;;3.37;68.99;100476.94;10463556;28;20141;-68
2022/01/19 22:48:35;;;;;;;11.52;7.43;;;;;;;3.44;68.99;100474.16;10461457;28;20396;-68
2022/01/19 22:53:39;;;;;;;9.90;6.60;;;;;;;3.39;69.20;100459.66;10445493;28;20519;-68
2022/01/19 22:58:42;;;;;;;11.38;7.15;;;;;;;3.47;69.05;100470.69;10447682;28;20098;-68
2022/01/19 23:03:44;;;;;;;8.77;5.80;;;;;;;3.48;69.07;100467.19;10464898;28;20439;-68
2022/01/19 23:08:47;;;;;;;5.82;4.93;;;;;;;3.52;69.19;100474.84;10466758;28;20083;-68
2022/01/19 23:13:50;;;;;;;7.57;5.97;;;;;;;3.60;69.06;100472.13;10432321;28;20135;-68
2022/01/19 23:18:53;;;;;;;6.75;5.28;;;;;;;3.61;69.12;100472.06;10448773;28;20231;-69
2022/01/19 23:23:54;;;;;;;8.65;6.05;;;;;;;3.68;68.98;100473.63;10466773;28;20147;-69
2022/01/19 23:28:56;;;;;;;8.80;5.75;;;;;;;3.66;68.85;100482.31;10465119;28;20592;-69
2022/01/19 23:33:59;;;;;;;10.35;7.18;;;;;;;3.63;69.28;100487.53;10464437;28;20057;-69
2022/01/19 23:39:14;;;;;;;8.05;5.53;;;;;;;3.67;69.00;100489.19;10464827;28;20055;-69
2022/01/19 23:49:37;;;;;;;8.87;6.00;;;;;;;3.70;69.17;100508.06;10464458;28;20076;-69
2022/01/19 23:54:39;;;;;;;10.95;7.13;;;;;;;3.88;69.04;100512.84;10467981;28;20067;-68
2022/01/19 23:59:51;;;;;;;10.68;6.63;;;;;;;3.96;68.92;100509.22;10471811;28;20568;-69
